createdAt,value
2022-12-29T00:00:02.456Z,996.8
2022-12-29T00:15:02.904Z,996.6
2022-12-29T00:30:02.462Z,996.7
2022-12-29T00:45:02.780Z,996.4
2022-12-29T01:00:03.378Z,996.2
2022-12-29T01:15:02.636Z,996.0
2022-12-29T01:30:03.075Z,995.9
2022-12-29T01:45:02.512Z,995.9
2022-12-29T02:00:02.944Z,995.5
2022-12-29T02:15:02.501Z,995.6
2022-12-29T02:30:02.801Z,995.4
2022-12-29T02:45:03.476Z,995.1
2022-12-29T03:00:02.696Z,995.0
2022-12-29T03:15:03.100Z,994.9
2022-12-29T03:30:02.551Z,994.7
2022-12-29T03:45:02.992Z,994.6
2022-12-29T04:00:02.557Z,994.5
2022-12-29T04:15:02.875Z,994.5
2022-12-29T04:30:02.538Z,994.5
2022-12-29T04:45:02.757Z,994.4
2022-12-29T05:00:03.182Z,994.3
2022-12-29T05:15:02.635Z,994.5
2022-12-29T05:30:03.056Z,994.6
2022-12-29T05:45:02.546Z,994.7
2022-12-29T06:00:02.961Z,995.2
2022-12-29T06:15:02.554Z,995.1
2022-12-29T06:30:02.847Z,994.8
2022-12-29T06:45:02.288Z,995.2
2022-12-29T07:00:02.730Z,995.2
2022-12-29T07:15:03.170Z,995.4
2022-12-29T07:30:02.595Z,995.5
2022-12-29T07:45:03.042Z,995.8
2022-12-29T08:00:02.586Z,996.0
2022-12-29T08:15:02.922Z,996.1
2022-12-29T08:30:02.565Z,996.3
2022-12-29T08:45:02.812Z,996.4
2022-12-29T09:00:02.195Z,996.3
2022-12-29T09:15:02.634Z,996.4
2022-12-29T09:30:03.087Z,996.3
2022-12-29T09:45:02.611Z,996.6
2022-12-29T10:00:02.947Z,996.5
2022-12-29T10:15:02.630Z,996.3
2022-12-29T10:30:02.841Z,996.4
2022-12-29T10:45:02.238Z,996.4
2022-12-29T11:00:02.711Z,996.4
2022-12-29T11:15:03.133Z,996.4
2022-12-29T11:30:02.631Z,996.4
2022-12-29T11:45:06.347Z,996.7
2022-12-29T12:00:02.630Z,996.9
2022-12-29T12:15:02.827Z,997.0
2022-12-29T12:30:02.298Z,997.3
2022-12-29T12:45:02.720Z,997.6
2022-12-29T13:00:03.175Z,997.7
2022-12-29T13:15:02.655Z,997.9
2022-12-29T13:30:03.037Z,998.0
2022-12-29T13:45:02.663Z,998.2
2022-12-29T14:00:02.918Z,998.5
2022-12-29T14:15:02.372Z,998.6
2022-12-29T14:30:02.812Z,998.8
2022-12-29T14:45:02.205Z,999.0
2022-12-29T15:00:02.687Z,999.2
2022-12-29T15:15:03.129Z,999.2
2022-12-29T15:30:02.861Z,999.3
2022-12-29T15:45:10.742Z,999.4
2022-12-29T16:15:02.870Z,999.8
2022-12-29T16:30:02.453Z,999.9
2022-12-29T16:45:02.743Z,999.8
2022-12-29T17:00:03.200Z,1000.1
2022-12-29T17:15:02.707Z,1000.0
2022-12-29T17:30:03.044Z,1000.1
2022-12-29T17:45:02.661Z,1000.2
2022-12-29T18:00:02.927Z,1000.2
2022-12-29T18:15:02.350Z,1000.4
2022-12-29T18:30:02.823Z,1000.7
2022-12-29T18:45:02.256Z,1000.7
2022-12-29T19:00:02.754Z,1000.8
2022-12-29T19:15:03.140Z,1001.1
2022-12-29T19:30:02.748Z,1001.2
2022-12-29T19:45:03.024Z,1001.4
2022-12-29T20:00:02.434Z,1001.6
2022-12-29T20:15:02.887Z,1001.6
2022-12-29T20:30:02.339Z,1002.0
2022-12-29T20:45:02.767Z,1002.0
2022-12-29T21:00:03.190Z,1002.2
2022-12-29T21:15:02.805Z,1002.2
2022-12-29T21:30:02.045Z,1002.4
2022-12-29T21:45:02.490Z,1002.6
2022-12-29T22:00:02.928Z,1002.5
2022-12-29T22:15:02.389Z,1002.9
2022-12-29T22:30:02.795Z,1003.0
2022-12-29T22:45:02.209Z,1003.1
2022-12-29T23:00:02.817Z,1003.2
2022-12-29T23:15:02.116Z,1003.6
2022-12-29T23:30:02.537Z,1003.5
2022-12-29T23:45:02.955Z,1003.7
